Time;durP1;ratioP1;P1;durP2;ratioP2;P2;SDS_P1;SDS_P2;PMS_P1;PMS_P2;Temp;Humidity;BMP_temperature;BMP_pressure;BME280_temperature;BME280_humidity;BME280_pressure;Samples;Min_cycle;Max_cycle;Signal;HPM_P1;HPM_P2
2022/08/18 00:02:15;;;;;;;17.15;8.20;;;22.00;99.90;;;;;;4979677;28;20039;-75
2022/08/18 00:04:41;;;;;;;17.63;7.80;;;22.00;99.90;;;;;;4979582;28;20030;-75
2022/08/18 00:07:10;;;;;;;17.98;8.25;;;22.00;99.90;;;;;;4979476;28;20110;-75
2022/08/18 00:09:37;;;;;;;13.55;7.18;;;22.00;99.90;;;;;;4978239;28;20046;-74
2022/08/18 00:12:08;;;;;;;15.93;9.73;;;22.00;99.90;;;;;;4978254;28;20042;-75
2022/08/18 00:14:33;;;;;;;14.65;7.18;;;22.00;99.90;;;;;;4979171;28;20448;-75
2022/08/18 00:16:59;;;;;;;13.70;7.25;;;22.00;99.90;;;;;;4977363;28;20039;-76
2022/08/18 00:19:25;;;;;;;12.43;6.95;;;22.00;99.90;;;;;;4978202;28;20157;-74
2022/08/18 00:21:51;;;;;;;12.57;7.05;;;21.90;99.90;;;;;;4978803;28;20450;-74
2022/08/18 00:24:17;;;;;;;11.32;7.43;;;21.90;99.90;;;;;;4977996;28;20047;-74
2022/08/18 00:26:42;;;;;;;15.13;7.25;;;21.90;99.90;;;;;;4978872;28;20057;-76
2022/08/18 00:29:08;;;;;;;14.15;7.50;;;21.90;99.90;;;;;;4977883;28;20060;-74
2022/08/18 00:31:34;;;;;;;16.92;7.28;;;21.90;99.90;;;;;;4977756;28;20127;-74
2022/08/18 00:34:00;;;;;;;16.80;7.60;;;21.90;99.90;;;;;;4994069;28;20043;-74
2022/08/18 00:36:26;;;;;;;19.85;7.60;;;21.90;99.90;;;;;;4978804;28;20119;-74
2022/08/18 00:38:52;;;;;;;19.40;8.35;;;21.80;99.90;;;;;;4993919;28;20074;-74
2022/08/18 00:41:19;;;;;;;19.98;6.97;;;21.80;99.90;;;;;;4993851;28;20042;-74
2022/08/18 00:43:48;;;;;;;12.38;5.93;;;21.70;99.90;;;;;;4977720;28;20090;-74
2022/08/18 00:46:21;;;;;;;18.13;5.50;;;21.80;99.90;;;;;;4978783;28;20074;-74
2022/08/18 00:48:48;;;;;;;19.67;7.07;;;21.80;99.90;;;;;;4978730;28;20062;-74
2022/08/18 00:51:21;;;;;;;17.38;6.93;;;21.80;99.90;;;;;;4977766;28;20057;-74
2022/08/18 00:54:09;;;;;;;15.90;6.35;;;21.70;99.90;;;;;;4977042;28;20433;-74
2022/08/18 00:56:43;;;;;;;16.77;6.32;;;21.70;99.90;;;;;;4977492;28;20129;-74
2022/08/18 00:59:23;;;;;;;11.85;5.47;;;21.80;99.90;;;;;;4978344;28;20129;-74
2022/08/18 01:01:52;;;;;;;16.40;6.05;;;21.80;99.90;;;;;;4978325;28;20035;-74
2022/08/18 01:04:25;;;;;;;11.70;4.80;;;21.80;99.90;;;;;;4978270;28;20074;-74
2022/08/18 01:06:56;;;;;;;17.10;5.78;;;21.70;99.90;;;;;;4978328;28;20114;-74
2022/08/18 01:09:22;;;;;;;18.48;5.63;;;21.50;99.90;;;;;;4977360;28;20498;-74
2022/08/18 01:11:50;;;;;;;9.52;4.80;;;21.60;99.90;;;;;;4978153;28;20051;-74
2022/08/18 01:14:17;;;;;;;14.50;5.60;;;21.60;99.90;;;;;;4977157;28;20089;-74
2022/08/18 01:22:36;;;;;;;13.73;4.90;;;21.50;99.90;;;;;;4976694;28;20444;-74
2022/08/18 01:27:50;;;;;;;15.85;6.10;;;21.50;99.90;;;;;;4976734;28;20038;-74
2022/08/18 01:30:17;;;;;;;10.48;5.13;;;21.60;99.90;;;;;;4976705;28;20054;-74
2022/08/18 01:32:45;;;;;;;11.88;5.13;;;21.60;99.90;;;;;;4977899;28;20090;-74
2022/08/18 01:35:14;;;;;;;12.32;5.22;;;21.60;99.90;;;;;;4978298;28;20097;-74
2022/08/18 01:37:41;;;;;;;15.18;6.03;;;21.60;99.90;;;;;;4977656;28;20047;-74
2022/08/18 01:40:08;;;;;;;13.90;5.70;;;21.60;99.90;;;;;;4977905;28;20043;-74
2022/08/18 01:42:35;;;;;;;11.82;5.50;;;21.60;99.90;;;;;;4993018;28;20053;-74
2022/08/18 01:45:03;;;;;;;13.23;5.80;;;21.60;99.90;;;;;;4977562;28;20042;-74
2022/08/18 01:47:31;;;;;;;12.23;5.10;;;21.60;99.90;;;;;;4977932;28;20121;-74
2022/08/18 01:49:57;;;;;;;13.43;5.90;;;21.60;99.90;;;;;;4977723;28;20039;-74
2022/08/18 01:52:23;;;;;;;17.27;5.70;;;21.60;99.90;;;;;;4976137;28;20086;-74
2022/08/18 01:54:50;;;;;;;10.15;4.80;;;21.60;99.90;;;;;;4976446;28;20129;-74
2022/08/18 01:57:17;;;;;;;17.48;5.40;;;21.60;99.90;;;;;;4977733;28;20046;-74
2022/08/18 01:59:43;;;;;;;24.42;7.80;;;21.50;99.90;;;;;;4977502;28;20070;-74
2022/08/18 02:02:15;;;;;;;26.55;7.93;;;21.60;99.90;;;;;;4976470;28;20038;-74
2022/08/18 02:04:41;;;;;;;27.42;10.15;;;21.70;99.90;;;;;;4977373;28;20504;-74
2022/08/18 02:07:11;;;;;;;13.02;5.78;;;21.70;99.90;;;;;;4977383;28;20038;-74
2022/08/18 02:09:38;;;;;;;17.83;7.00;;;21.70;99.90;;;;;;4978072;28;20125;-74
2022/08/18 02:12:06;;;;;;;23.45;7.75;;;21.70;99.90;;;;;;4976354;28;20062;-74
2022/08/18 02:14:33;;;;;;;24.98;8.38;;;21.70;99.90;;;;;;4977556;28;20082;-74
2022/08/18 02:17:01;;;;;;;21.30;7.03;;;21.70;99.90;;;;;;4977325;28;20047;-74
2022/08/18 02:19:27;;;;;;;32.72;11.38;;;21.70;99.90;;;;;;4977528;28;20049;-74
2022/08/18 02:21:53;;;;;;;31.10;10.35;;;21.70;99.90;;;;;;4977047;28;20039;-73
2022/08/18 02:24:18;;;;;;;25.48;9.50;;;21.70;99.90;;;;;;4977434;28;20038;-74
2022/08/18 02:26:44;;;;;;;24.90;8.98;;;21.60;99.90;;;;;;4977429;28;20425;-74
2022/08/18 02:29:10;;;;;;;19.33;7.90;;;21.70;99.90;;;;;;4977044;28;20129;-74
2022/08/18 02:31:35;;;;;;;27.45;9.73;;;21.70;99.90;;;;;;4977453;28;20043;-74
2022/08/18 02:34:01;;;;;;;37.85;12.05;;;21.70;99.90;;;;;;4976175;28;20042;-74
2022/08/18 02:36:27;;;;;;;17.35;9.43;;;21.70;99.90;;;;;;4977391;28;20058;-74
2022/08/18 02:38:53;;;;;;;22.13;8.40;;;21.70;99.90;;;;;;4992215;28;20038;-74
2022/08/18 02:41:20;;;;;;;19.80;6.97;;;21.70;99.90;;;;;;4979555;28;20078;-74
2022/08/18 02:43:47;;;;;;;21.20;7.93;;;21.80;99.90;;;;;;4980007;28;20043;-74
2022/08/18 02:46:13;;;;;;;21.05;7.20;;;21.70;99.90;;;;;;4979975;28;20078;-74
2022/08/18 02:48:39;;;;;;;14.10;6.28;;;21.70;99.90;;;;;;4980614;28;20433;-74
2022/08/18 02:51:08;;;;;;;19.52;7.60;;;21.70;99.90;;;;;;4981061;28;20042;-74
2022/08/18 02:53:34;;;;;;;21.42;8.20;;;21.60;99.90;;;;;;4979331;28;20326;-74
2022/08/18 02:56:27;;;;;;;19.20;6.85;;;21.70;99.90;;;;;;4979688;28;20058;-73
2022/08/18 02:59:03;;;;;;;22.85;9.07;;;21.60;99.90;;;;;;4980764;28;20090;-74
2022/08/18 03:01:32;;;;;;;15.40;8.05;;;21.60;99.90;;;;;;4980550;28;20074;-74
2022/08/18 03:03:59;;;;;;;31.13;9.50;;;21.60;99.90;;;;;;4980785;28;20046;-74
2022/08/18 03:06:26;;;;;;;28.67;9.85;;;21.60;99.90;;;;;;4979396;28;20047;-74
2022/08/18 03:08:53;;;;;;;45.53;12.30;;;21.60;99.90;;;;;;4979616;28;20074;-74
2022/08/18 03:11:22;;;;;;;24.73;8.48;;;21.70;99.90;;;;;;4980264;28;20042;-74
2022/08/18 03:13:48;;;;;;;24.10;10.30;;;21.70;99.90;;;;;;4980256;28;20042;-74
2022/08/18 03:16:15;;;;;;;27.85;10.02;;;21.80;99.90;;;;;;4980206;28;20484;-74
2022/08/18 03:18:42;;;;;;;18.92;8.05;;;21.80;99.90;;;;;;4979023;28;20453;-74
2022/08/18 03:21:16;;;;;;;32.55;11.63;;;21.80;99.90;;;;;;4979499;28;20043;-74
2022/08/18 03:23:42;;;;;;;25.10;9.27;;;21.80;99.90;;;;;;4978814;28;20050;-74
2022/08/18 03:26:14;;;;;;;27.58;10.85;;;21.80;99.90;;;;;;4980214;28;20046;-74
2022/08/18 03:28:43;;;;;;;25.10;9.43;;;21.80;99.90;;;;;;4978882;28;20087;-74
2022/08/18 03:31:10;;;;;;;25.85;11.18;;;21.80;99.90;;;;;;4995508;28;20082;-75
2022/08/18 03:33:37;;;;;;;34.00;11.05;;;21.80;99.90;;;;;;4980301;28;20046;-74
2022/08/18 03:36:11;;;;;;;30.17;8.45;;;21.70;99.90;;;;;;4980048;28;20537;-74
2022/08/18 03:38:38;;;;;;;24.50;9.50;;;21.70;99.90;;;;;;4979711;28;20337;-74
2022/08/18 03:41:11;;;;;;;19.25;9.02;;;21.60;99.90;;;;;;4978704;28;20049;-74
2022/08/18 03:43:37;;;;;;;20.25;8.85;;;21.60;99.90;;;;;;4980245;28;20377;-74
2022/08/18 03:46:05;;;;;;;25.08;8.82;;;21.70;99.90;;;;;;4979821;28;20038;-74
2022/08/18 03:48:32;;;;;;;26.48;8.95;;;21.70;99.90;;;;;;4978759;28;20043;-74
2022/08/18 03:51:05;;;;;;;23.88;9.45;;;21.70;99.90;;;;;;4977883;28;20060;-75
2022/08/18 03:53:33;;;;;;;26.60;9.32;;;21.70;99.90;;;;;;4978220;28;20047;-74
2022/08/18 03:55:59;;;;;;;20.42;6.82;;;21.70;99.90;;;;;;4979765;28;20047;-73
2022/08/18 03:58:26;;;;;;;19.23;7.78;;;21.70;99.90;;;;;;4978701;28;20325;-74
2022/08/18 04:00:52;;;;;;;31.20;9.65;;;21.70;99.90;;;;;;4979609;28;20040;-74
2022/08/18 04:03:17;;;;;;;28.00;10.80;;;21.70;99.90;;;;;;4979574;28;20031;-74
2022/08/18 04:05:44;;;;;;;22.38;7.78;;;21.70;99.90;;;;;;4994571;28;20488;-74
2022/08/18 04:08:10;;;;;;;16.58;7.57;;;21.70;99.90;;;;;;4978534;28;20049;-74
2022/08/18 04:10:36;;;;;;;31.38;11.75;;;21.70;99.90;;;;;;4979583;28;20046;-74
2022/08/18 04:13:04;;;;;;;15.30;8.38;;;21.70;99.90;;;;;;4979361;28;20074;-74
2022/08/18 04:15:33;;;;;;;27.08;10.02;;;21.70;99.90;;;;;;4979244;28;20125;-74
2022/08/18 04:18:02;;;;;;;16.98;8.35;;;21.70;99.90;;;;;;4978044;28;20055;-74
2022/08/18 04:20:29;;;;;;;17.35;7.70;;;21.70;99.90;;;;;;4994158;28;20042;-74
2022/08/18 04:22:55;;;;;;;28.98;11.13;;;21.70;99.90;;;;;;4978825;28;20066;-74
2022/08/18 04:25:20;;;;;;;27.42;12.18;;;21.80;99.90;;;;;;4977991;28;20101;-74
2022/08/18 04:27:46;;;;;;;21.23;11.95;;;21.70;99.90;;;;;;4979015;28;20069;-74
2022/08/18 04:30:12;;;;;;;19.15;10.23;;;21.70;99.90;;;;;;4978727;28;20058;-74
2022/08/18 04:32:38;;;;;;;29.80;12.35;;;21.70;99.90;;;;;;4978883;28;20051;-74
2022/08/18 04:35:05;;;;;;;29.85;12.07;;;21.80;99.90;;;;;;4977789;28;20093;-74
2022/08/18 04:37:31;;;;;;;17.77;9.90;;;21.70;99.90;;;;;;4977876;28;20089;-74
2022/08/18 04:39:58;;;;;;;34.33;13.52;;;21.70;99.90;;;;;;4978669;28;20047;-74
2022/08/18 04:42:25;;;;;;;15.25;8.73;;;21.80;99.90;;;;;;4979014;28;20043;-74
2022/08/18 04:44:50;;;;;;;17.40;10.45;;;21.80;99.90;;;;;;4978643;28;20306;-74
2022/08/18 04:47:16;;;;;;;19.85;11.23;;;21.80;99.90;;;;;;4978626;28;20038;-74
2022/08/18 04:49:43;;;;;;;27.80;14.20;;;21.80;99.90;;;;;;4977551;28;20464;-74
2022/08/18 04:54:53;;;;;;;34.15;15.20;;;21.40;99.90;;;;;;4977510;28;20111;-74
2022/08/18 04:57:21;;;;;;;26.95;13.45;;;21.40;99.90;;;;;;4978462;28;20043;-74
2022/08/18 04:59:50;;;;;;;19.73;11.95;;;21.40;99.90;;;;;;4993817;28;20105;-74
2022/08/18 05:02:17;;;;;;;19.02;11.30;;;21.30;99.90;;;;;;4976932;28;20349;-74
2022/08/18 05:04:45;;;;;;;30.38;13.90;;;21.30;99.90;;;;;;4977543;28;20129;-73
2022/08/18 05:07:13;;;;;;;19.50;10.82;;;21.30;99.90;;;;;;4978568;28;20078;-73
2022/08/18 05:09:40;;;;;;;24.45;12.38;;;21.20;99.90;;;;;;4993409;28;20050;-74
2022/08/18 05:12:08;;;;;;;31.35;13.70;;;21.40;99.90;;;;;;4977238;28;20047;-74
2022/08/18 05:14:34;;;;;;;35.90;17.77;;;21.40;99.90;;;;;;4978108;28;20043;-74
2022/08/18 05:17:02;;;;;;;36.67;17.88;;;21.40;99.90;;;;;;4977180;28;20089;-74
2022/08/18 05:19:29;;;;;;;38.55;18.63;;;21.30;99.90;;;;;;4978018;28;20047;-74
2022/08/18 05:21:56;;;;;;;34.33;16.98;;;21.20;99.90;;;;;;4992702;28;20054;-73
2022/08/18 05:24:24;;;;;;;26.77;16.48;;;21.20;99.90;;;;;;4978248;28;20039;-74
2022/08/18 05:26:51;;;;;;;29.85;15.30;;;21.10;99.90;;;;;;4978000;28;20046;-74
2022/08/18 05:29:20;;;;;;;27.58;13.88;;;21.20;99.90;;;;;;4976610;28;20059;-74
2022/08/18 05:31:48;;;;;;;24.88;12.35;;;21.20;99.90;;;;;;4992978;28;20047;-74
2022/08/18 05:34:14;;;;;;;32.65;17.17;;;21.20;99.90;;;;;;4976950;28;20089;-74
2022/08/18 05:36:50;;;;;;;30.33;15.65;;;21.40;99.90;;;;;;4976753;28;20046;-74
2022/08/18 05:39:50;;;;;;;25.38;15.55;;;21.40;99.90;;;;;;4976802;28;20122;-74
2022/08/18 05:42:19;;;;;;;38.78;18.48;;;21.30;99.90;;;;;;4977053;28;20182;-74
2022/08/18 05:44:49;;;;;;;19.30;14.10;;;21.30;99.90;;;;;;4976676;28;20043;-73
2022/08/18 05:47:21;;;;;;;17.80;13.70;;;21.40;99.90;;;;;;4976788;28;20039;-73
2022/08/18 05:49:48;;;;;;;22.10;14.75;;;21.50;99.90;;;;;;4992729;28;20047;-73
2022/08/18 05:52:37;;;;;;;25.17;16.75;;;21.60;99.90;;;;;;4977323;28;20053;-74
2022/08/18 05:58:24;;;;;;;28.42;16.00;;;21.60;99.90;;;;;;4976711;28;20045;-73
2022/08/18 06:00:57;;;;;;;26.10;14.15;;;21.70;99.90;;;;;;4977544;28;20138;-73
2022/08/18 06:03:34;;;;;;;34.00;16.75;;;21.70;99.90;;;;;;4977859;28;20093;-73
2022/08/18 06:06:03;;;;;;;28.38;15.68;;;21.60;99.90;;;;;;4977536;28;20047;-73
2022/08/18 06:08:39;;;;;;;27.58;13.77;;;21.50;99.90;;;;;;4976906;28;20475;-73
2022/08/18 06:11:05;;;;;;;20.13;11.98;;;21.60;99.90;;;;;;4977634;28;20070;-74
2022/08/18 06:13:38;;;;;;;23.55;11.93;;;21.60;99.90;;;;;;4976518;28;20078;-74
2022/08/18 06:16:12;;;;;;;24.20;13.77;;;21.60;99.90;;;;;;4980660;28;20093;-74
2022/08/18 06:19:14;;;;;;;29.35;12.82;;;21.60;99.90;;;;;;4981294;28;20065;-74
2022/08/18 06:22:06;;;;;;;18.90;11.68;;;21.70;99.90;;;;;;4980252;28;20070;-74
2022/08/18 06:24:48;;;;;;;19.42;9.20;;;21.70;99.90;;;;;;4980295;28;20102;-74
2022/08/18 06:27:39;;;;;;;23.35;10.05;;;21.70;99.90;;;;;;4981284;28;20047;-74
2022/08/18 06:30:16;;;;;;;17.23;8.80;;;21.60;99.90;;;;;;4981074;28;20122;-74
2022/08/18 06:32:55;;;;;;;18.10;8.38;;;21.60;99.90;;;;;;4996340;28;20050;-74
2022/08/18 06:35:49;;;;;;;18.08;7.45;;;21.70;99.90;;;;;;4980050;28;20054;-74
2022/08/18 06:39:00;;;;;;;11.70;7.00;;;21.80;99.90;;;;;;4981079;28;20158;-74
2022/08/18 06:41:40;;;;;;;21.20;10.48;;;21.90;99.90;;;;;;4980986;28;20058;-74
2022/08/18 06:44:23;;;;;;;23.67;10.43;;;22.00;99.90;;;;;;4980355;28;20039;-74
2022/08/18 06:47:14;;;;;;;15.77;8.45;;;21.90;99.90;;;;;;4979901;28;20118;-74
2022/08/18 06:49:45;;;;;;;14.23;8.57;;;21.80;99.90;;;;;;4980044;28;20383;-73
2022/08/18 06:52:47;;;;;;;22.70;10.40;;;21.90;99.90;;;;;;4979734;28;20337;-74
2022/08/18 06:55:17;;;;;;;18.17;8.90;;;21.80;99.90;;;;;;4987216;28;20055;-73
2022/08/18 06:57:58;;;;;;;21.55;8.95;;;21.60;99.90;;;;;;4995739;28;20055;-73
2022/08/18 07:00:27;;;;;;;17.10;7.53;;;21.50;99.90;;;;;;4979503;28;20050;-74
2022/08/18 07:03:02;;;;;;;27.42;7.30;;;21.50;99.90;;;;;;4979446;28;20540;-75
2022/08/18 07:05:31;;;;;;;10.70;5.43;;;21.50;99.90;;;;;;4981195;28;20133;-73
2022/08/18 07:08:10;;;;;;;15.13;6.25;;;21.50;99.90;;;;;;4979708;28;20441;-74
2022/08/18 07:10:47;;;;;;;12.85;4.53;;;21.60;99.90;;;;;;4980583;28;20038;-74
2022/08/18 07:13:25;;;;;;;18.25;5.97;;;21.60;99.90;;;;;;4979313;28;20074;-74
2022/08/18 07:16:13;;;;;;;19.83;6.43;;;21.80;99.90;;;;;;4980489;28;20059;-74
2022/08/18 07:18:39;;;;;;;14.85;5.43;;;21.90;99.90;;;;;;4980508;28;20049;-74
2022/08/18 07:21:04;;;;;;;17.63;5.68;;;21.90;99.90;;;;;;4980151;28;20039;-73
2022/08/18 07:23:38;;;;;;;13.13;5.07;;;21.90;99.90;;;;;;4979817;28;20039;-74
2022/08/18 07:26:11;;;;;;;16.35;4.78;;;21.60;99.90;;;;;;4978850;28;20050;-74
2022/08/18 07:28:49;;;;;;;14.15;5.03;;;21.50;99.90;;;;;;4979891;28;20473;-73
2022/08/18 07:31:34;;;;;;;19.50;5.43;;;21.20;99.90;;;;;;4980225;28;20430;-73
2022/08/18 07:34:13;;;;;;;14.30;4.35;;;21.40;99.90;;;;;;4995479;28;20057;-74
2022/08/18 07:36:49;;;;;;;13.57;4.22;;;21.40;99.90;;;;;;4978873;28;20054;-74
2022/08/18 07:39:23;;;;;;;21.60;4.57;;;21.40;99.90;;;;;;4979150;28;20139;-74
2022/08/18 07:42:04;;;;;;;15.70;4.60;;;21.40;99.90;;;;;;4979911;28;20041;-73
2022/08/18 07:44:50;;;;;;;18.85;5.30;;;21.30;99.90;;;;;;4978876;28;20057;-74
2022/08/18 07:47:30;;;;;;;13.15;4.28;;;21.50;99.90;;;;;;4979846;28;20043;-70
2022/08/18 07:49:57;;;;;;;17.85;4.30;;;21.50;99.90;;;;;;4978875;28;20397;-70
2022/08/18 07:52:44;;;;;;;21.08;5.25;;;21.60;99.90;;;;;;4978611;28;20058;-70
2022/08/18 07:55:40;;;;;;;16.88;4.05;;;21.70;99.90;;;;;;4978889;28;20073;-72
2022/08/18 07:58:43;;;;;;;17.83;4.70;;;21.70;99.90;;;;;;4982079;28;20345;-71
2022/08/18 08:01:33;;;;;;;10.60;3.50;;;21.70;99.90;;;;;;4979624;28;20047;-69
2022/08/18 08:04:17;;;;;;;12.88;4.18;;;21.20;99.90;;;;;;4978702;28;20341;-69
2022/08/18 08:06:46;;;;;;;11.30;3.60;;;21.10;99.90;;;;;;4979619;28;20039;-68
2022/08/18 08:09:29;;;;;;;16.00;4.80;;;21.00;99.90;;;;;;4978300;28;20385;-68
2022/08/18 08:12:22;;;;;;;11.45;3.67;;;21.20;99.90;;;;;;4979362;28;20047;-68
2022/08/18 08:14:50;;;;;;;12.30;3.22;;;21.10;99.90;;;;;;4997870;28;20057;-68
2022/08/18 08:17:31;;;;;;;9.93;3.20;;;21.20;99.90;;;;;;4979217;28;20046;-68
2022/08/18 08:20:46;;;;;;;11.52;3.38;;;21.10;99.90;;;;;;4979156;28;20074;-69
2022/08/18 08:23:37;;;;;;;14.65;3.65;;;21.10;99.90;;;;;;4980304;28;20047;-69
2022/08/18 08:26:28;;;;;;;15.00;3.97;;;21.10;99.90;;;;;;4978924;28;20074;-68
2022/08/18 08:28:56;;;;;;;8.55;3.28;;;21.40;99.90;;;;;;4978925;28;20059;-68
2022/08/18 08:31:43;;;;;;;7.43;2.70;;;21.60;99.90;;;;;;4979216;28;20422;-68
2022/08/18 08:34:35;;;;;;;11.52;3.45;;;21.80;99.90;;;;;;4979018;28;20046;-69
2022/08/18 08:37:04;;;;;;;8.55;2.88;;;21.60;99.90;;;;;;4978597;28;20097;-69
2022/08/18 08:39:42;;;;;;;9.35;2.75;;;21.60;99.90;;;;;;4978571;28;20039;-69
2022/08/18 08:42:18;;;;;;;9.00;2.92;;;21.60;99.90;;;;;;4978957;28;20149;-68
2022/08/18 08:44:51;;;;;;;8.35;2.67;;;21.70;99.90;;;;;;4978949;28;20039;-69
2022/08/18 08:47:47;;;;;;;10.90;3.20;;;21.80;99.90;;;;;;4978742;28;20353;-69
2022/08/18 08:50:20;;;;;;;6.93;2.08;;;21.80;99.90;;;;;;4978739;28;20051;-69
2022/08/18 08:52:51;;;;;;;6.85;2.55;;;21.50;99.90;;;;;;4978416;28;20053;-69
2022/08/18 08:55:25;;;;;;;6.35;2.08;;;21.70;99.90;;;;;;4978698;28;20042;-68
2022/08/18 08:58:22;;;;;;;6.40;2.40;;;21.90;99.90;;;;;;4978417;28;20154;-69
2022/08/18 09:00:50;;;;;;;7.43;2.03;;;22.30;99.90;;;;;;4978452;28;20086;-69
2022/08/18 09:03:30;;;;;;;3.55;1.70;;;22.10;99.90;;;;;;4978507;28;20129;-68
2022/08/18 09:06:09;;;;;;;5.72;2.38;;;22.40;99.90;;;;;;4978163;28;20042;-69
2022/08/18 09:08:56;;;;;;;7.82;2.17;;;22.40;99.90;;;;;;4978578;28;20046;-69
2022/08/18 09:11:29;;;;;;;;;;;22.50;99.90;;;;;;4978862;28;20046;-69
2022/08/18 09:14:07;;;;;;;7.38;1.75;;;22.60;99.90;;;;;;4978342;28;19941;-83
2022/08/18 09:17:06;;;;;;;5.47;1.75;;;22.60;99.90;;;;;;4977116;28;20074;-76
2022/08/18 09:19:34;;;;;;;6.38;1.95;;;22.70;99.90;;;;;;4978083;28;20046;-80
2022/08/18 09:22:13;;;;;;;5.45;1.60;;;22.30;99.90;;;;;;4976935;28;20337;-80
2022/08/18 09:24:45;;;;;;;5.65;1.98;;;22.30;99.90;;;;;;4976903;28;20039;-80
2022/08/18 09:27:21;;;;;;;5.88;1.90;;;22.30;99.90;;;;;;4978154;28;20046;-80
2022/08/18 09:29:57;;;;;;;6.50;1.77;;;22.50;99.90;;;;;;4976972;28;20459;-79
2022/08/18 09:32:24;;;;;;;6.20;1.88;;;22.30;99.90;;;;;;4977017;28;20141;-79
2022/08/18 09:35:05;;;;;;;3.42;1.42;;;22.30;99.90;;;;;;4977022;28;20047;-68
2022/08/18 09:44:10;;;;;;;7.57;2.00;;;22.60;99.90;;;;;;4976602;28;20053;-77
2022/08/18 09:46:42;;;;;;;4.65;1.50;;;22.70;99.90;;;;;;4977171;28;20129;-77
2022/08/18 09:49:26;;;;;;;9.65;2.03;;;22.70;99.90;;;;;;4975701;28;20046;-79
2022/08/18 09:52:21;;;;;;;5.47;1.40;;;22.70;99.90;;;;;;4976532;28;20047;-78
2022/08/18 09:55:29;;;;;;;3.60;1.85;;;22.40;99.90;;;;;;4992681;28;20038;-78
2022/08/18 09:58:17;;;;;;;5.60;1.80;;;22.30;99.90;;;;;;4977328;28;20039;-80
2022/08/18 10:00:43;;;;;;;6.55;1.85;;;22.40;99.90;;;;;;4976520;28;20043;-82
2022/08/18 10:03:16;;;;;;;8.45;1.77;;;22.60;99.90;;;;;;4977514;28;20321;-81
2022/08/18 10:05:58;;;;;;;7.80;1.88;;;22.70;99.90;;;;;;4977770;28;20058;-81
2022/08/18 10:08:35;;;;;;;10.63;2.30;;;22.60;99.90;;;;;;4976495;28;20106;-69
2022/08/18 10:11:27;;;;;;;6.32;1.73;;;22.60;99.90;;;;;;4977615;28;20042;-69
2022/08/18 10:14:12;;;;;;;5.22;1.98;;;22.80;99.90;;;;;;4977699;28;20177;-69
2022/08/18 10:16:51;;;;;;;4.20;1.50;;;22.90;99.90;;;;;;4976574;28;20054;-68
2022/08/18 10:19:42;;;;;;;5.65;1.38;;;23.40;99.90;;;;;;4977501;28;20045;-70
2022/08/18 10:22:09;;;;;;;5.63;1.40;;;23.80;99.90;;;;;;4977609;28;20092;-72
2022/08/18 10:24:58;;;;;;;8.32;1.50;;;23.50;99.90;;;;;;4977535;28;20039;-69
2022/08/18 10:27:32;;;;;;;4.97;1.75;;;23.40;99.90;;;;;;4977453;28;20075;-70
2022/08/18 10:30:04;;;;;;;8.05;1.65;;;23.40;99.90;;;;;;4977200;28;20065;-92
2022/08/18 10:32:42;;;;;;;7.35;1.70;;;23.50;99.90;;;;;;4977439;28;20341;-69
2022/08/18 10:35:36;;;;;;;7.93;1.52;;;23.50;99.90;;;;;;4977610;28;20322;-70
2022/08/18 10:38:11;;;;;;;2.90;1.35;;;23.50;99.90;;;;;;4976091;28;20054;-69
2022/08/18 10:40:39;;;;;;;3.97;1.25;;;23.40;99.90;;;;;;4976111;28;20438;-88
2022/08/18 10:43:15;;;;;;;4.97;1.48;;;23.20;99.90;;;;;;4977393;28;20047;-78
2022/08/18 10:45:51;;;;;;;4.95;1.42;;;23.00;99.90;;;;;;4977324;28;20106;-80
2022/08/18 10:48:28;;;;;;;10.85;2.58;;;22.90;99.90;;;;;;4977426;28;20169;-85
2022/08/18 10:51:26;;;;;;;26.13;5.47;;;22.70;99.90;;;;;;4976215;28;20077;-84
2022/08/18 10:54:22;;;;;;;4.22;1.35;;;22.90;99.90;;;;;;4983676;28;20051;-84
2022/08/18 10:57:18;;;;;;;5.82;1.50;;;22.90;99.90;;;;;;4976465;28;20057;-86
2022/08/18 11:00:17;;;;;;;5.32;1.77;;;22.80;99.90;;;;;;4976212;28;20448;-67
2022/08/18 11:02:56;;;;;;;9.20;1.98;;;22.80;99.90;;;;;;4982466;28;20047;-70
2022/08/18 11:05:24;;;;;;;3.67;1.58;;;22.70;99.90;;;;;;4980899;28;20357;-70
2022/08/18 11:07:57;;;;;;;4.80;1.42;;;22.30;99.90;;;;;;4980517;28;20035;-69
2022/08/18 11:10:34;;;;;;;4.75;1.67;;;22.40;99.90;;;;;;4979517;28;20043;-68
2022/08/18 11:13:28;;;;;;;3.15;1.50;;;22.80;99.90;;;;;;4980713;28;20042;-68
2022/08/18 11:16:25;;;;;;;3.38;1.60;;;22.80;99.90;;;;;;4980350;28;20437;-69
2022/08/18 11:19:02;;;;;;;8.10;2.08;;;23.00;99.90;;;;;;4980449;28;20129;-70
2022/08/18 11:21:44;;;;;;;8.07;2.40;;;23.30;99.90;;;;;;4980283;28;20417;-86
2022/08/18 11:24:11;;;;;;;6.63;2.25;;;23.20;99.90;;;;;;4979079;28;20328;-81
2022/08/18 11:26:50;;;;;;;6.63;1.98;;;23.20;99.90;;;;;;4979303;28;20043;-80
2022/08/18 11:29:22;;;;;;;9.68;1.85;;;23.20;99.90;;;;;;4978996;28;20059;-80
2022/08/18 11:31:52;;;;;;;4.05;1.65;;;23.00;99.90;;;;;;4980375;28;20056;-76
2022/08/18 11:34:24;;;;;;;5.22;1.55;;;23.00;99.90;;;;;;4982233;28;20518;-76
2022/08/18 11:36:58;;;;;;;5.07;1.77;;;23.00;99.90;;;;;;4979275;28;20042;-77
2022/08/18 11:39:24;;;;;;;6.78;1.67;;;23.50;99.90;;;;;;4978921;28;20047;-74
2022/08/18 11:41:50;;;;;;;4.70;1.58;;;24.00;99.90;;;;;;4978905;28;20042;-80
2022/08/18 11:44:23;;;;;;;5.68;1.73;;;24.40;99.90;;;;;;4979985;28;20043;-79
2022/08/18 11:47:07;;;;;;;4.40;1.55;;;24.60;99.90;;;;;;4978806;28;20496;-82
2022/08/18 11:49:35;;;;;;;4.78;1.40;;;24.70;99.90;;;;;;4980097;28;20070;-83
2022/08/18 11:52:16;;;;;;;4.13;1.50;;;24.80;99.90;;;;;;4979836;28;20034;-78
2022/08/18 11:54:47;;;;;;;6.53;1.30;;;25.20;99.90;;;;;;4979955;28;20125;-78
2022/08/18 11:57:52;;;;;;;3.00;1.27;;;25.70;99.90;;;;;;4979696;28;20042;-76
2022/08/18 12:00:40;;;;;;;4.75;1.60;;;25.70;99.90;;;;;;4979524;28;20097;-79
2022/08/18 12:03:14;;;;;;;8.82;1.77;;;26.00;99.90;;;;;;4979567;28;20039;-80
2022/08/18 12:05:52;;;;;;;4.65;1.50;;;26.40;99.90;;;;;;4979520;28;20043;-78
2022/08/18 12:08:32;;;;;;;4.72;1.70;;;26.40;99.90;;;;;;4979547;28;20038;-79
2022/08/18 12:11:14;;;;;;;6.05;1.92;;;26.20;99.90;;;;;;4979706;28;20129;-78
2022/08/18 12:13:44;;;;;;;2.85;1.40;;;26.10;99.90;;;;;;4978474;28;20042;-77
2022/08/18 12:16:29;;;;;;;4.53;1.40;;;26.00;99.90;;;;;;4979600;28;20047;-79
2022/08/18 12:18:56;;;;;;;4.38;1.15;;;26.20;99.90;;;;;;4979208;28;20043;-79
2022/08/18 12:21:22;;;;;;;6.72;1.55;;;26.20;99.90;;;;;;4979301;28;20039;-79
2022/08/18 12:23:48;;;;;;;5.55;1.33;;;26.40;99.90;;;;;;4994006;28;20117;-79
2022/08/18 12:26:14;;;;;;;5.28;1.30;;;26.70;99.90;;;;;;4978994;28;20066;-79
2022/08/18 12:28:40;;;;;;;6.20;1.52;;;26.90;99.90;;;;;;4978772;28;20054;-79
2022/08/18 12:31:06;;;;;;;3.38;1.30;;;26.90;99.90;;;;;;4979087;28;20031;-79
2022/08/18 12:33:34;;;;;;;7.05;1.58;;;27.10;99.90;;;;;;4977924;28;20333;-79
2022/08/18 12:36:01;;;;;;;3.35;1.35;;;27.20;99.90;;;;;;4978993;28;20031;-79
2022/08/18 12:38:27;;;;;;;3.65;1.45;;;26.90;99.90;;;;;;4979139;28;20093;-79
2022/08/18 12:40:53;;;;;;;3.47;1.33;;;26.70;99.90;;;;;;4978711;28;20045;-79
2022/08/18 12:43:19;;;;;;;4.20;1.73;;;26.60;99.90;;;;;;4979012;28;20035;-79
2022/08/18 12:45:45;;;;;;;3.58;1.20;;;26.50;99.90;;;;;;4978815;28;20045;-79
2022/08/18 12:48:11;;;;;;;4.78;1.40;;;26.20;99.90;;;;;;4978733;28;20109;-77
2022/08/18 12:50:38;;;;;;;5.85;1.77;;;26.10;99.90;;;;;;4978623;28;20464;-78
2022/08/18 12:53:04;;;;;;;5.80;1.40;;;26.00;99.90;;;;;;4978469;28;20043;-77
2022/08/18 12:55:38;;;;;;;2.85;1.13;;;26.20;99.90;;;;;;4977418;28;20050;-77
2022/08/18 12:58:04;;;;;;;3.50;1.20;;;26.40;99.90;;;;;;4978745;28;20341;-77
2022/08/18 13:00:30;;;;;;;7.35;1.40;;;26.30;99.90;;;;;;4978651;28;20043;-77
2022/08/18 13:02:56;;;;;;;2.80;1.33;;;25.80;99.90;;;;;;4978411;28;20046;-77
2022/08/18 13:05:22;;;;;;;5.30;1.33;;;25.60;99.90;;;;;;4978654;28;20042;-78
2022/08/18 13:07:48;;;;;;;3.95;1.60;;;25.80;99.90;;;;;;4977332;28;20448;-80
2022/08/18 13:10:13;;;;;;;3.58;1.35;;;25.90;99.90;;;;;;4978181;28;20050;-71
2022/08/18 13:12:39;;;;;;;3.63;1.20;;;26.20;99.90;;;;;;4978586;28;20046;-72
2022/08/18 13:15:05;;;;;;;5.70;1.30;;;26.80;99.90;;;;;;4978252;28;20039;-71
2022/08/18 13:17:31;;;;;;;5.07;1.33;;;27.10;99.90;;;;;;4978460;28;20121;-71
2022/08/18 13:19:57;;;;;;;3.63;1.40;;;27.80;99.90;;;;;;4978086;28;20117;-71
2022/08/18 13:22:23;;;;;;;2.92;1.30;;;28.40;99.90;;;;;;4976804;28;20417;-71
2022/08/18 13:24:48;;;;;;;2.35;1.05;;;28.70;99.90;;;;;;4977796;28;20526;-71
2022/08/18 13:27:15;;;;;;;2.75;1.10;;;29.00;99.90;;;;;;4977912;28;20046;-70
2022/08/18 13:29:41;;;;;;;4.20;1.40;;;28.80;99.90;;;;;;4977798;28;20059;-69
2022/08/18 13:32:08;;;;;;;5.03;1.23;;;28.10;99.90;;;;;;4978041;28;20042;-69